sensor_id;sensor_type;location;lat;lon;timestamp;P1;durP1;ratioP1;P2;durP2;ratioP2
10874;SDS011;5490;52.200;8.786;2023-03-15T03:01:50;1.23;;;1.13;;
10874;SDS011;5490;52.200;8.786;2023-03-15T03:04:17;3.03;;;1.40;;
10874;SDS011;5490;52.200;8.786;2023-03-15T03:06:44;4.23;;;1.60;;
10874;SDS011;5490;52.200;8.786;2023-03-15T03:09:10;4.60;;;1.50;;
10874;SDS011;5490;52.200;8.786;2023-03-15T03:11:37;1.40;;;1.07;;
10874;SDS011;5490;52.200;8.786;2023-03-15T03:14:04;2.47;;;1.27;;
10874;SDS011;5490;52.200;8.786;2023-03-15T03:16:31;4.10;;;1.37;;
10874;SDS011;5490;52.200;8.786;2023-03-15T03:18:59;3.47;;;1.60;;
10874;SDS011;5490;52.200;8.786;2023-03-15T03:21:25;3.90;;;1.47;;
10874;SDS011;5490;52.200;8.786;2023-03-15T03:23:52;2.37;;;1.10;;
10874;SDS011;5490;52.200;8.786;2023-03-15T03:26:19;2.40;;;1.37;;
10874;SDS011;5490;52.200;8.786;2023-03-15T03:28:46;1.70;;;1.30;;
10874;SDS011;5490;52.200;8.786;2023-03-15T03:31:17;1.40;;;1.30;;
10874;SDS011;5490;52.200;8.786;2023-03-15T03:33:45;4.33;;;1.40;;
10874;SDS011;5490;52.200;8.786;2023-03-15T03:36:13;1.70;;;1.23;;
10874;SDS011;5490;52.200;8.786;2023-03-15T03:38:40;2.50;;;1.17;;
10874;SDS011;5490;52.200;8.786;2023-03-15T03:41:08;2.87;;;1.50;;
10874;SDS011;5490;52.200;8.786;2023-03-15T03:43:35;1.27;;;1.17;;
10874;SDS011;5490;52.200;8.786;2023-03-15T03:46:03;2.87;;;1.40;;
10874;SDS011;5490;52.200;8.786;2023-03-15T03:48:30;3.17;;;1.30;;
10874;SDS011;5490;52.200;8.786;2023-03-15T03:50:57;6.53;;;1.53;;
10874;SDS011;5490;52.200;8.786;2023-03-15T03:53:25;1.30;;;1.20;;
10874;SDS011;5490;52.200;8.786;2023-03-15T03:55:52;1.93;;;1.40;;
10874;SDS011;5490;52.200;8.786;2023-03-15T03:58:20;4.90;;;1.50;;
10874;SDS011;5490;52.200;8.786;2023-03-15T04:00:46;2.30;;;1.43;;
10874;SDS011;5490;52.200;8.786;2023-03-15T04:03:13;1.50;;;1.40;;
10874;SDS011;5490;52.200;8.786;2023-03-15T04:05:40;1.57;;;1.40;;
10874;SDS011;5490;52.200;8.786;2023-03-15T04:08:07;2.50;;;1.60;;
10874;SDS011;5490;52.200;8.786;2023-03-15T04:10:35;2.43;;;1.60;;
10874;SDS011;5490;52.200;8.786;2023-03-15T04:13:02;2.83;;;1.63;;
10874;SDS011;5490;52.200;8.786;2023-03-15T04:15:28;4.10;;;1.93;;
10874;SDS011;5490;52.200;8.786;2023-03-15T04:17:55;1.60;;;1.30;;
10874;SDS011;5490;52.200;8.786;2023-03-15T04:20:22;5.30;;;1.83;;
10874;SDS011;5490;52.200;8.786;2023-03-15T04:22:50;1.70;;;1.40;;
10874;SDS011;5490;52.200;8.786;2023-03-15T04:25:17;1.80;;;1.50;;
10874;SDS011;5490;52.200;8.786;2023-03-15T04:27:46;1.40;;;1.30;;
10874;SDS011;5490;52.200;8.786;2023-03-15T04:30:22;1.43;;;1.30;;
10874;SDS011;5490;52.200;8.786;2023-03-15T04:32:51;3.47;;;1.50;;
10874;SDS011;5490;52.200;8.786;2023-03-15T04:35:22;1.50;;;1.40;;
10874;SDS011;5490;52.200;8.786;2023-03-15T04:37:50;2.30;;;1.53;;
10874;SDS011;5490;52.200;8.786;2023-03-15T04:40:17;5.20;;;1.80;;
10874;SDS011;5490;52.200;8.786;2023-03-15T04:42:43;1.37;;;1.27;;
10874;SDS011;5490;52.200;8.786;2023-03-15T04:45:11;1.37;;;1.27;;
10874;SDS011;5490;52.200;8.786;2023-03-15T04:47:38;2.27;;;1.57;;
10874;SDS011;5490;52.200;8.786;2023-03-15T04:50:05;2.87;;;1.40;;
10874;SDS011;5490;52.200;8.786;2023-03-15T04:52:33;1.80;;;1.57;;
10874;SDS011;5490;52.200;8.786;2023-03-15T04:55:00;2.60;;;1.43;;
10874;SDS011;5490;52.200;8.786;2023-03-15T04:57:27;1.67;;;1.40;;
10874;SDS011;5490;52.200;8.786;2023-03-15T04:59:53;2.03;;;1.70;;
10874;SDS011;5490;52.200;8.786;2023-03-15T05:02:22;4.77;;;1.47;;
10874;SDS011;5490;52.200;8.786;2023-03-15T05:04:49;3.40;;;1.43;;
10874;SDS011;5490;52.200;8.786;2023-03-15T05:07:16;2.47;;;1.40;;
10874;SDS011;5490;52.200;8.786;2023-03-15T05:09:42;1.83;;;1.30;;
10874;SDS011;5490;52.200;8.786;2023-03-15T05:12:10;5.17;;;1.93;;
10874;SDS011;5490;52.200;8.786;2023-03-15T05:14:37;1.80;;;1.70;;
10874;SDS011;5490;52.200;8.786;2023-03-15T05:17:04;1.67;;;1.40;;
10874;SDS011;5490;52.200;8.786;2023-03-15T05:19:32;2.50;;;1.33;;
10874;SDS011;5490;52.200;8.786;2023-03-15T05:21:59;3.40;;;1.97;;
10874;SDS011;5490;52.200;8.786;2023-03-15T05:24:30;1.50;;;1.40;;
10874;SDS011;5490;52.200;8.786;2023-03-15T05:26:57;2.17;;;1.67;;
10874;SDS011;5490;52.200;8.786;2023-03-15T05:29:24;1.80;;;1.60;;
10874;SDS011;5490;52.200;8.786;2023-03-15T05:31:51;2.43;;;1.77;;
10874;SDS011;5490;52.200;8.786;2023-03-15T05:34:17;2.30;;;2.10;;
10874;SDS011;5490;52.200;8.786;2023-03-15T05:36:49;3.73;;;2.03;;
10874;SDS011;5490;52.200;8.786;2023-03-15T05:39:16;4.03;;;1.80;;
10874;SDS011;5490;52.200;8.786;2023-03-15T05:41:43;2.47;;;1.67;;
10874;SDS011;5490;52.200;8.786;2023-03-15T05:44:14;5.10;;;1.80;;
10874;SDS011;5490;52.200;8.786;2023-03-15T05:46:41;1.93;;;1.50;;
10874;SDS011;5490;52.200;8.786;2023-03-15T05:49:08;1.93;;;1.60;;
10874;SDS011;5490;52.200;8.786;2023-03-15T05:51:35;2.00;;;1.70;;
10874;SDS011;5490;52.200;8.786;2023-03-15T05:54:03;2.70;;;2.33;;
10874;SDS011;5490;52.200;8.786;2023-03-15T05:56:30;2.50;;;1.67;;
10874;SDS011;5490;52.200;8.786;2023-03-15T05:58:56;2.00;;;1.80;;
10874;SDS011;5490;52.200;8.786;2023-03-15T06:01:26;4.33;;;1.93;;
10874;SDS011;5490;52.200;8.786;2023-03-15T06:03:53;2.60;;;2.17;;
10874;SDS011;5490;52.200;8.786;2023-03-15T06:06:20;3.10;;;1.80;;
10874;SDS011;5490;52.200;8.786;2023-03-15T06:08:47;3.47;;;2.20;;
10874;SDS011;5490;52.200;8.786;2023-03-15T06:11:15;2.23;;;1.80;;
10874;SDS011;5490;52.200;8.786;2023-03-15T06:13:42;4.50;;;2.27;;
10874;SDS011;5490;52.200;8.786;2023-03-15T06:16:09;3.70;;;1.93;;
10874;SDS011;5490;52.200;8.786;2023-03-15T06:18:35;4.93;;;1.90;;
10874;SDS011;5490;52.200;8.786;2023-03-15T06:21:02;3.97;;;2.37;;
10874;SDS011;5490;52.200;8.786;2023-03-15T06:23:29;4.17;;;1.90;;
10874;SDS011;5490;52.200;8.786;2023-03-15T06:25:56;4.37;;;2.63;;
10874;SDS011;5490;52.200;8.786;2023-03-15T06:28:24;4.47;;;2.77;;
10874;SDS011;5490;52.200;8.786;2023-03-15T06:30:51;2.60;;;1.93;;
10874;SDS011;5490;52.200;8.786;2023-03-15T06:33:18;2.80;;;2.43;;
10874;SDS011;5490;52.200;8.786;2023-03-15T06:35:45;3.27;;;2.60;;
10874;SDS011;5490;52.200;8.786;2023-03-15T06:38:12;3.73;;;2.23;;
10874;SDS011;5490;52.200;8.786;2023-03-15T06:40:39;3.30;;;2.57;;
10874;SDS011;5490;52.200;8.786;2023-03-15T06:43:06;3.07;;;2.10;;
10874;SDS011;5490;52.200;8.786;2023-03-15T06:45:34;3.50;;;2.53;;
10874;SDS011;5490;52.200;8.786;2023-03-15T06:48:01;3.60;;;2.40;;
10874;SDS011;5490;52.200;8.786;2023-03-15T06:50:27;5.93;;;2.50;;
10874;SDS011;5490;52.200;8.786;2023-03-15T06:52:54;3.57;;;2.57;;
10874;SDS011;5490;52.200;8.786;2023-03-15T06:55:21;8.77;;;2.83;;
10874;SDS011;5490;52.200;8.786;2023-03-15T06:57:48;4.87;;;2.50;;
10874;SDS011;5490;52.200;8.786;2023-03-15T07:00:15;2.97;;;2.57;;
10874;SDS011;5490;52.200;8.786;2023-03-15T07:02:44;5.63;;;3.10;;
10874;SDS011;5490;52.200;8.786;2023-03-15T07:05:11;5.23;;;2.33;;
10874;SDS011;5490;52.200;8.786;2023-03-15T07:07:37;5.43;;;2.73;;
10874;SDS011;5490;52.200;8.786;2023-03-15T07:10:04;6.57;;;2.20;;
10874;SDS011;5490;52.200;8.786;2023-03-15T07:12:31;4.27;;;2.33;;
10874;SDS011;5490;52.200;8.786;2023-03-15T07:14:58;6.50;;;2.73;;
10874;SDS011;5490;52.200;8.786;2023-03-15T07:17:25;6.77;;;2.27;;
10874;SDS011;5490;52.200;8.786;2023-03-15T07:19:53;3.07;;;2.07;;
10874;SDS011;5490;52.200;8.786;2023-03-15T07:22:20;2.80;;;1.70;;
10874;SDS011;5490;52.200;8.786;2023-03-15T07:24:47;3.90;;;2.93;;
10874;SDS011;5490;52.200;8.786;2023-03-15T07:27:14;2.87;;;1.87;;
10874;SDS011;5490;52.200;8.786;2023-03-15T07:29:40;3.10;;;2.40;;
10874;SDS011;5490;52.200;8.786;2023-03-15T07:32:07;2.57;;;1.93;;
10874;SDS011;5490;52.200;8.786;2023-03-15T07:34:34;6.50;;;1.90;;
10874;SDS011;5490;52.200;8.786;2023-03-15T07:37:02;2.47;;;1.93;;
10874;SDS011;5490;52.200;8.786;2023-03-15T07:39:29;4.13;;;2.00;;
10874;SDS011;5490;52.200;8.786;2023-03-15T07:41:56;2.23;;;1.83;;
10874;SDS011;5490;52.200;8.786;2023-03-15T07:44:23;4.57;;;2.77;;
10874;SDS011;5490;52.200;8.786;2023-03-15T07:46:50;5.40;;;2.27;;
10874;SDS011;5490;52.200;8.786;2023-03-15T07:49:19;3.17;;;1.90;;
10874;SDS011;5490;52.200;8.786;2023-03-15T07:51:45;6.87;;;2.03;;
10874;SDS011;5490;52.200;8.786;2023-03-15T07:54:13;3.77;;;1.70;;
10874;SDS011;5490;52.200;8.786;2023-03-15T07:56:40;3.73;;;2.03;;
10874;SDS011;5490;52.200;8.786;2023-03-15T07:59:07;2.70;;;1.90;;
10874;SDS011;5490;52.200;8.786;2023-03-15T08:01:36;3.37;;;2.37;;
10874;SDS011;5490;52.200;8.786;2023-03-15T08:04:03;3.10;;;1.67;;
10874;SDS011;5490;52.200;8.786;2023-03-15T08:06:30;7.93;;;1.93;;
10874;SDS011;5490;52.200;8.786;2023-03-15T08:08:57;5.83;;;1.60;;
10874;SDS011;5490;52.200;8.786;2023-03-15T08:14:02;4.40;;;1.93;;
10874;SDS011;5490;52.200;8.786;2023-03-15T08:16:29;3.07;;;2.07;;
10874;SDS011;5490;52.200;8.786;2023-03-15T08:18:56;4.80;;;1.67;;
10874;SDS011;5490;52.200;8.786;2023-03-15T08:21:23;3.45;;;2.20;;
10874;SDS011;5490;52.200;8.786;2023-03-15T08:23:49;2.77;;;2.00;;
10874;SDS011;5490;52.200;8.786;2023-03-15T08:26:16;4.27;;;2.30;;
10874;SDS011;5490;52.200;8.786;2023-03-15T08:28:44;4.57;;;1.93;;
10874;SDS011;5490;52.200;8.786;2023-03-15T08:31:13;4.97;;;1.60;;
10874;SDS011;5490;52.200;8.786;2023-03-15T08:33:39;5.20;;;2.10;;
10874;SDS011;5490;52.200;8.786;2023-03-15T08:36:06;4.50;;;1.60;;
10874;SDS011;5490;52.200;8.786;2023-03-15T08:38:36;4.97;;;1.90;;
10874;SDS011;5490;52.200;8.786;2023-03-15T08:41:03;2.47;;;1.57;;
10874;SDS011;5490;52.200;8.786;2023-03-15T08:43:30;2.20;;;1.77;;
10874;SDS011;5490;52.200;8.786;2023-03-15T08:45:58;4.93;;;1.77;;
10874;SDS011;5490;52.200;8.786;2023-03-15T08:48:25;3.93;;;1.83;;
10874;SDS011;5490;52.200;8.786;2023-03-15T08:50:52;4.67;;;2.00;;
10874;SDS011;5490;52.200;8.786;2023-03-15T08:53:18;4.77;;;1.93;;
10874;SDS011;5490;52.200;8.786;2023-03-15T08:55:46;2.77;;;1.23;;
10874;SDS011;5490;52.200;8.786;2023-03-15T08:58:13;2.20;;;1.70;;
10874;SDS011;5490;52.200;8.786;2023-03-15T09:00:40;11.00;;;2.13;;
10874;SDS011;5490;52.200;8.786;2023-03-15T09:03:08;4.67;;;2.10;;
10874;SDS011;5490;52.200;8.786;2023-03-15T09:05:35;5.77;;;1.43;;
10874;SDS011;5490;52.200;8.786;2023-03-15T09:08:02;3.20;;;1.30;;
10874;SDS011;5490;52.200;8.786;2023-03-15T09:10:29;2.57;;;1.40;;
10874;SDS011;5490;52.200;8.786;2023-03-15T09:12:56;4.47;;;2.27;;
10874;SDS011;5490;52.200;8.786;2023-03-15T09:15:23;1.80;;;1.40;;
10874;SDS011;5490;52.200;8.786;2023-03-15T09:17:50;5.70;;;2.93;;
10874;SDS011;5490;52.200;8.786;2023-03-15T09:20:19;3.20;;;1.40;;
10874;SDS011;5490;52.200;8.786;2023-03-15T09:22:52;4.97;;;2.00;;
10874;SDS011;5490;52.200;8.786;2023-03-15T09:25:21;5.63;;;1.80;;
10874;SDS011;5490;52.200;8.786;2023-03-15T09:27:49;4.60;;;1.67;;
10874;SDS011;5490;52.200;8.786;2023-03-15T09:30:16;7.23;;;2.07;;
10874;SDS011;5490;52.200;8.786;2023-03-15T09:32:43;2.20;;;1.27;;
10874;SDS011;5490;52.200;8.786;2023-03-15T09:35:11;1.20;;;1.10;;
10874;SDS011;5490;52.200;8.786;2023-03-15T09:37:41;7.03;;;1.87;;
10874;SDS011;5490;52.200;8.786;2023-03-15T09:40:11;2.90;;;1.40;;
10874;SDS011;5490;52.200;8.786;2023-03-15T09:42:56;3.17;;;1.30;;
10874;SDS011;5490;52.200;8.786;2023-03-15T09:45:30;3.83;;;1.20;;
10874;SDS011;5490;52.200;8.786;2023-03-15T09:48:10;6.93;;;1.70;;
10874;SDS011;5490;52.200;8.786;2023-03-15T09:50:41;3.73;;;1.40;;
10874;SDS011;5490;52.200;8.786;2023-03-15T09:53:15;2.60;;;1.50;;
10874;SDS011;5490;52.200;8.786;2023-03-15T09:55:46;4.77;;;1.43;;
10874;SDS011;5490;52.200;8.786;2023-03-15T09:58:16;0.70;;;0.70;;
10874;SDS011;5490;52.200;8.786;2023-03-15T10:00:46;4.60;;;1.20;;
10874;SDS011;5490;52.200;8.786;2023-03-15T10:03:19;1.17;;;1.13;;
10874;SDS011;5490;52.200;8.786;2023-03-15T10:05:51;3.57;;;1.10;;
10874;SDS011;5490;52.200;8.786;2023-03-15T10:08:23;1.13;;;0.93;;
10874;SDS011;5490;52.200;8.786;2023-03-15T10:10:51;1.83;;;1.10;;
10874;SDS011;5490;52.200;8.786;2023-03-15T10:13:28;7.43;;;1.50;;
10874;SDS011;5490;52.200;8.786;2023-03-15T10:16:05;1.37;;;1.00;;
10874;SDS011;5490;52.200;8.786;2023-03-15T10:18:47;2.30;;;1.23;;
10874;SDS011;5490;52.200;8.786;2023-03-15T10:21:29;0.80;;;0.80;;
10874;SDS011;5490;52.200;8.786;2023-03-15T10:24:04;5.17;;;1.00;;
10874;SDS011;5490;52.200;8.786;2023-03-15T10:26:40;3.03;;;1.20;;
10874;SDS011;5490;52.200;8.786;2023-03-15T10:29:09;5.20;;;1.40;;
10874;SDS011;5490;52.200;8.786;2023-03-15T10:31:40;1.27;;;1.17;;
10874;SDS011;5490;52.200;8.786;2023-03-15T10:34:10;3.33;;;1.13;;
10874;SDS011;5490;52.200;8.786;2023-03-15T10:36:42;3.57;;;1.20;;
10874;SDS011;5490;52.200;8.786;2023-03-15T10:39:11;2.63;;;0.70;;
10874;SDS011;5490;52.200;8.786;2023-03-15T10:41:39;3.23;;;0.80;;
10874;SDS011;5490;52.200;8.786;2023-03-15T10:44:10;1.00;;;0.90;;
10874;SDS011;5490;52.200;8.786;2023-03-15T10:46:39;0.53;;;0.53;;
10874;SDS011;5490;52.200;8.786;2023-03-15T10:49:09;7.47;;;1.00;;
10874;SDS011;5490;52.200;8.786;2023-03-15T10:51:38;10.63;;;1.20;;
10874;SDS011;5490;52.200;8.786;2023-03-15T10:54:10;0.73;;;0.70;;
10874;SDS011;5490;52.200;8.786;2023-03-15T10:56:42;2.67;;;0.73;;
10874;SDS011;5490;52.200;8.786;2023-03-15T10:59:16;1.27;;;0.87;;
10874;SDS011;5490;52.200;8.786;2023-03-15T11:01:45;2.83;;;1.00;;
10874;SDS011;5490;52.200;8.786;2023-03-15T11:04:15;5.67;;;1.77;;
10874;SDS011;5490;52.200;8.786;2023-03-15T11:06:44;1.83;;;1.40;;
10874;SDS011;5490;52.200;8.786;2023-03-15T11:09:15;0.70;;;0.60;;
10874;SDS011;5490;52.200;8.786;2023-03-15T11:11:47;1.33;;;0.80;;
10874;SDS011;5490;52.200;8.786;2023-03-15T11:14:17;4.40;;;1.03;;
10874;SDS011;5490;52.200;8.786;2023-03-15T11:16:46;0.77;;;0.60;;
10874;SDS011;5490;52.200;8.786;2023-03-15T11:19:15;0.87;;;0.60;;
10874;SDS011;5490;52.200;8.786;2023-03-15T11:21:45;4.63;;;1.00;;
10874;SDS011;5490;52.200;8.786;2023-03-15T11:24:19;5.87;;;1.10;;
10874;SDS011;5490;52.200;8.786;2023-03-15T11:26:52;1.20;;;1.10;;
10874;SDS011;5490;52.200;8.786;2023-03-15T11:29:21;2.17;;;0.90;;
10874;SDS011;5490;52.200;8.786;2023-03-15T11:31:50;3.70;;;0.97;;
10874;SDS011;5490;52.200;8.786;2023-03-15T11:34:21;9.60;;;0.97;;
10874;SDS011;5490;52.200;8.786;2023-03-15T11:36:53;0.97;;;0.80;;
10874;SDS011;5490;52.200;8.786;2023-03-15T11:39:25;11.50;;;1.90;;
10874;SDS011;5490;52.200;8.786;2023-03-15T11:42:04;0.77;;;0.47;;
10874;SDS011;5490;52.200;8.786;2023-03-15T11:44:36;1.43;;;0.40;;
10874;SDS011;5490;52.200;8.786;2023-03-15T11:47:07;2.07;;;0.87;;
10874;SDS011;5490;52.200;8.786;2023-03-15T11:49:39;0.40;;;0.40;;
10874;SDS011;5490;52.200;8.786;2023-03-15T11:52:11;2.87;;;0.77;;
10874;SDS011;5490;52.200;8.786;2023-03-15T11:54:41;2.90;;;0.73;;
10874;SDS011;5490;52.200;8.786;2023-03-15T12:00:14;7.40;;;0.87;;
10874;SDS011;5490;52.200;8.786;2023-03-15T12:02:52;2.23;;;0.83;;
10874;SDS011;5490;52.200;8.786;2023-03-15T12:08:16;2.20;;;0.93;;
10874;SDS011;5490;52.200;8.786;2023-03-15T12:10:46;3.43;;;1.00;;
10874;SDS011;5490;52.200;8.786;2023-03-15T12:13:19;1.37;;;0.57;;
10874;SDS011;5490;52.200;8.786;2023-03-15T12:15:48;2.27;;;0.80;;
10874;SDS011;5490;52.200;8.786;2023-03-15T12:18:17;4.10;;;1.00;;
10874;SDS011;5490;52.200;8.786;2023-03-15T12:20:51;0.73;;;0.57;;
10874;SDS011;5490;52.200;8.786;2023-03-15T12:23:33;1.43;;;0.83;;
10874;SDS011;5490;52.200;8.786;2023-03-15T12:26:06;1.73;;;0.67;;
10874;SDS011;5490;52.200;8.786;2023-03-15T12:28:38;1.93;;;1.00;;
10874;SDS011;5490;52.200;8.786;2023-03-15T12:31:10;3.83;;;1.23;;
10874;SDS011;5490;52.200;8.786;2023-03-15T12:33:43;1.77;;;0.63;;
10874;SDS011;5490;52.200;8.786;2023-03-15T12:36:15;0.60;;;0.60;;
10874;SDS011;5490;52.200;8.786;2023-03-15T12:38:53;2.33;;;0.90;;
10874;SDS011;5490;52.200;8.786;2023-03-15T12:41:34;0.83;;;0.63;;
10874;SDS011;5490;52.200;8.786;2023-03-15T12:46:53;1.50;;;0.83;;
10874;SDS011;5490;52.200;8.786;2023-03-15T12:49:29;1.30;;;1.13;;
10874;SDS011;5490;52.200;8.786;2023-03-15T12:51:58;0.70;;;0.53;;
10874;SDS011;5490;52.200;8.786;2023-03-15T12:54:29;1.10;;;0.80;;
10874;SDS011;5490;52.200;8.786;2023-03-15T12:57:01;1.27;;;0.50;;
10874;SDS011;5490;52.200;8.786;2023-03-15T12:59:30;0.33;;;0.33;;
10874;SDS011;5490;52.200;8.786;2023-03-15T13:05:11;0.37;;;0.30;;
10874;SDS011;5490;52.200;8.786;2023-03-15T13:07:45;2.17;;;0.60;;
10874;SDS011;5490;52.200;8.786;2023-03-15T13:10:25;2.97;;;0.50;;
10874;SDS011;5490;52.200;8.786;2023-03-15T13:13:02;0.40;;;0.40;;
10874;SDS011;5490;52.200;8.786;2023-03-15T13:15:50;1.70;;;0.40;;
10874;SDS011;5490;52.200;8.786;2023-03-15T13:18:28;3.50;;;0.30;;
10874;SDS011;5490;52.200;8.786;2023-03-15T13:21:04;3.30;;;0.50;;
10874;SDS011;5490;52.200;8.786;2023-03-15T13:23:41;0.57;;;0.40;;
10874;SDS011;5490;52.200;8.786;2023-03-15T13:26:19;0.43;;;0.40;;
10874;SDS011;5490;52.200;8.786;2023-03-15T13:29:00;2.87;;;1.07;;
10874;SDS011;5490;52.200;8.786;2023-03-15T13:31:35;0.60;;;0.60;;
10874;SDS011;5490;52.200;8.786;2023-03-15T13:34:09;0.87;;;0.70;;
10874;SDS011;5490;52.200;8.786;2023-03-15T13:36:38;6.93;;;0.90;;
10874;SDS011;5490;52.200;8.786;2023-03-15T13:39:09;3.20;;;1.10;;
10874;SDS011;5490;52.200;8.786;2023-03-15T16:49:52;1.23;;;0.60;;
10874;SDS011;5490;52.200;8.786;2023-03-15T16:52:19;1.17;;;1.00;;
10874;SDS011;5490;52.200;8.786;2023-03-15T16:54:45;0.87;;;0.80;;
10874;SDS011;5490;52.200;8.786;2023-03-15T16:57:13;2.20;;;1.13;;
10874;SDS011;5490;52.200;8.786;2023-03-15T16:59:44;2.70;;;1.03;;
10874;SDS011;5490;52.200;8.786;2023-03-15T17:02:14;1.17;;;0.87;;
10874;SDS011;5490;52.200;8.786;2023-03-15T17:04:43;0.93;;;0.80;;
10874;SDS011;5490;52.200;8.786;2023-03-15T17:07:12;2.90;;;1.20;;
10874;SDS011;5490;52.200;8.786;2023-03-15T17:09:39;2.97;;;1.20;;
10874;SDS011;5490;52.200;8.786;2023-03-15T17:12:08;2.27;;;1.33;;
10874;SDS011;5490;52.200;8.786;2023-03-15T17:14:40;2.40;;;1.10;;
10874;SDS011;5490;52.200;8.786;2023-03-15T17:17:07;2.67;;;1.47;;
10874;SDS011;5490;52.200;8.786;2023-03-15T17:19:34;1.90;;;1.43;;
10874;SDS011;5490;52.200;8.786;2023-03-15T17:22:01;1.53;;;0.97;;
10874;SDS011;5490;52.200;8.786;2023-03-15T17:24:29;0.73;;;0.73;;
10874;SDS011;5490;52.200;8.786;2023-03-15T17:26:56;0.77;;;0.77;;
10874;SDS011;5490;52.200;8.786;2023-03-15T17:29:23;1.33;;;0.87;;
10874;SDS011;5490;52.200;8.786;2023-03-15T17:31:50;4.03;;;1.40;;
10874;SDS011;5490;52.200;8.786;2023-03-15T17:34:16;1.27;;;1.03;;
10874;SDS011;5490;52.200;8.786;2023-03-15T17:36:45;1.97;;;1.57;;
10874;SDS011;5490;52.200;8.786;2023-03-15T17:39:13;0.87;;;0.83;;
10874;SDS011;5490;52.200;8.786;2023-03-15T17:41:45;3.07;;;1.10;;
10874;SDS011;5490;52.200;8.786;2023-03-15T17:44:13;5.10;;;1.30;;
10874;SDS011;5490;52.200;8.786;2023-03-15T17:46:40;1.00;;;0.90;;
10874;SDS011;5490;52.200;8.786;2023-03-15T17:49:07;1.73;;;1.30;;
10874;SDS011;5490;52.200;8.786;2023-03-15T17:51:36;1.67;;;1.27;;
10874;SDS011;5490;52.200;8.786;2023-03-15T17:54:09;5.20;;;1.93;;
10874;SDS011;5490;52.200;8.786;2023-03-15T17:56:38;3.90;;;1.83;;
10874;SDS011;5490;52.200;8.786;2023-03-15T17:59:07;3.33;;;1.50;;
10874;SDS011;5490;52.200;8.786;2023-03-15T18:01:35;6.70;;;2.40;;
10874;SDS011;5490;52.200;8.786;2023-03-15T18:04:04;4.30;;;2.17;;
10874;SDS011;5490;52.200;8.786;2023-03-15T18:06:31;6.40;;;2.57;;
10874;SDS011;5490;52.200;8.786;2023-03-15T18:08:58;5.20;;;2.43;;
10874;SDS011;5490;52.200;8.786;2023-03-15T18:11:26;2.87;;;2.03;;
10874;SDS011;5490;52.200;8.786;2023-03-15T18:13:55;4.77;;;2.90;;
10874;SDS011;5490;52.200;8.786;2023-03-15T18:16:24;9.10;;;2.37;;
10874;SDS011;5490;52.200;8.786;2023-03-15T18:18:51;6.87;;;2.60;;
10874;SDS011;5490;52.200;8.786;2023-03-15T18:21:19;4.23;;;2.73;;
10874;SDS011;5490;52.200;8.786;2023-03-15T18:23:47;3.53;;;2.50;;
10874;SDS011;5490;52.200;8.786;2023-03-15T18:26:15;3.70;;;2.00;;
10874;SDS011;5490;52.200;8.786;2023-03-15T18:28:43;3.87;;;2.00;;
10874;SDS011;5490;52.200;8.786;2023-03-15T18:31:10;4.80;;;2.33;;
10874;SDS011;5490;52.200;8.786;2023-03-15T18:33:39;4.30;;;1.70;;
10874;SDS011;5490;52.200;8.786;2023-03-15T18:38:41;2.83;;;1.23;;
10874;SDS011;5490;52.200;8.786;2023-03-15T18:41:11;1.40;;;1.20;;
10874;SDS011;5490;52.200;8.786;2023-03-15T18:43:42;2.33;;;1.33;;
10874;SDS011;5490;52.200;8.786;2023-03-15T18:46:13;2.83;;;1.53;;
10874;SDS011;5490;52.200;8.786;2023-03-15T18:48:41;1.80;;;1.13;;
10874;SDS011;5490;52.200;8.786;2023-03-15T18:51:09;1.93;;;1.27;;
10874;SDS011;5490;52.200;8.786;2023-03-15T18:53:39;2.43;;;1.43;;
10874;SDS011;5490;52.200;8.786;2023-03-15T18:56:11;5.50;;;1.50;;
10874;SDS011;5490;52.200;8.786;2023-03-15T18:58:41;1.67;;;1.10;;
10874;SDS011;5490;52.200;8.786;2023-03-15T19:01:07;1.30;;;1.03;;
